createdAt,value
2023-10-26T00:00:59.757Z,11.80
2023-10-26T00:02:01.647Z,11.35
2023-10-26T00:03:03.738Z,11.82
2023-10-26T00:04:06.244Z,11.75
2023-10-26T00:05:08.945Z,11.35
2023-10-26T00:06:10.856Z,12.40
2023-10-26T00:07:12.967Z,11.75
2023-10-26T00:08:15.501Z,11.60
2023-10-26T00:09:17.331Z,12.70
2023-10-26T00:10:19.956Z,12.20
2023-10-26T00:11:21.867Z,11.65
2023-10-26T00:12:23.877Z,11.80
2023-10-26T00:13:25.893Z,11.68
2023-10-26T00:14:27.734Z,12.02
2023-10-26T00:15:29.684Z,13.10
2023-10-26T00:16:31.634Z,11.48
2023-10-26T00:17:34.030Z,12.25
2023-10-26T00:18:36.277Z,12.18
2023-10-26T00:19:38.397Z,12.30
2023-10-26T00:20:40.500Z,12.50
2023-10-26T00:21:42.480Z,12.00
2023-10-26T00:22:44.385Z,12.75
2023-10-26T00:23:46.442Z,12.63
2023-10-26T00:24:48.541Z,13.85
2023-10-26T00:25:50.536Z,13.55
2023-10-26T00:26:52.582Z,12.45
2023-10-26T00:27:54.677Z,12.55
2023-10-26T00:28:56.547Z,13.77
2023-10-26T00:29:58.484Z,13.38
2023-10-26T00:31:00.438Z,13.40
2023-10-26T00:32:02.405Z,13.00
2023-10-26T00:33:04.850Z,13.07
2023-10-26T00:34:07.166Z,14.48
2023-10-26T00:35:10.149Z,13.88
2023-10-26T00:36:12.182Z,14.43
2023-10-26T00:37:14.183Z,17.45
2023-10-26T00:38:16.046Z,14.93
2023-10-26T00:39:19.091Z,14.25
2023-10-26T00:40:21.238Z,15.00
2023-10-26T00:41:23.108Z,21.33
2023-10-26T00:42:26.178Z,14.43
2023-10-26T00:43:28.143Z,13.63
2023-10-26T00:44:30.592Z,13.45
2023-10-26T00:45:36.610Z,14.80
2023-10-26T00:46:39.199Z,14.38
2023-10-26T00:47:42.163Z,14.27
2023-10-26T00:48:44.337Z,15.40
2023-10-26T00:49:46.800Z,15.25
2023-10-26T00:50:50.823Z,13.30
2023-10-26T00:52:00.225Z,13.88
2023-10-26T00:53:03.093Z,13.90
2023-10-26T00:54:06.892Z,13.60
2023-10-26T00:55:10.201Z,12.38
2023-10-26T00:56:15.309Z,13.52
2023-10-26T00:57:23.289Z,15.02
2023-10-26T00:58:27.323Z,16.23
2023-10-26T00:59:31.419Z,15.07
2023-10-26T01:00:34.140Z,16.30
2023-10-26T01:01:36.142Z,15.18
2023-10-26T01:02:39.642Z,14.90
2023-10-26T01:03:43.117Z,15.73
2023-10-26T01:04:45.363Z,14.02
2023-10-26T01:05:47.670Z,14.88
2023-10-26T01:06:49.710Z,15.80
2023-10-26T01:07:51.604Z,16.40
2023-10-26T01:08:54.229Z,15.30
2023-10-26T01:09:58.274Z,15.32
2023-10-26T01:11:01.011Z,16.50
2023-10-26T01:12:03.373Z,15.27
2023-10-26T01:13:05.743Z,15.90
2023-10-26T01:14:09.390Z,16.33
2023-10-26T01:15:12.446Z,16.05
2023-10-26T01:16:16.384Z,15.82
2023-10-26T01:17:18.782Z,15.15
2023-10-26T01:18:21.724Z,15.35
2023-10-26T01:19:42.489Z,16.08
2023-10-26T01:20:44.570Z,14.73
2023-10-26T01:21:54.883Z,14.32
2023-10-26T01:22:56.839Z,14.95
2023-10-26T01:23:59.320Z,15.63
2023-10-26T01:25:01.367Z,17.42
2023-10-26T01:26:03.399Z,15.75
2023-10-26T01:27:06.588Z,15.82
2023-10-26T01:28:08.542Z,18.17
2023-10-26T01:29:10.942Z,16.52
2023-10-26T01:30:14.208Z,15.80
2023-10-26T01:31:17.916Z,15.60
2023-10-26T01:32:19.869Z,15.32
2023-10-26T01:33:22.300Z,17.05
2023-10-26T01:34:25.243Z,17.05
2023-10-26T01:35:27.600Z,17.25
2023-10-26T01:36:29.814Z,15.82
2023-10-26T01:37:31.758Z,16.60
2023-10-26T01:38:34.060Z,17.42
2023-10-26T01:39:35.915Z,16.63
2023-10-26T01:40:37.797Z,16.38
2023-10-26T01:41:39.729Z,16.13
2023-10-26T01:42:41.696Z,15.13
2023-10-26T01:43:43.645Z,17.40
2023-10-26T01:44:45.802Z,17.27
2023-10-26T01:45:47.850Z,16.38
2023-10-26T01:46:49.845Z,17.65
2023-10-26T01:47:53.139Z,16.85
2023-10-26T01:48:55.456Z,16.50
2023-10-26T01:49:57.507Z,16.98
2023-10-26T01:50:59.438Z,17.15
2023-10-26T01:52:01.371Z,16.92
2023-10-26T01:53:03.320Z,16.77
2023-10-26T01:54:05.660Z,16.25
2023-10-26T01:55:08.623Z,17.17
2023-10-26T01:56:10.588Z,16.92
2023-10-26T01:57:12.759Z,16.58
2023-10-26T01:58:15.455Z,15.68
2023-10-26T01:59:17.428Z,17.83
2023-10-26T02:00:19.785Z,17.02
2023-10-26T02:01:21.883Z,16.67
2023-10-26T02:02:23.806Z,17.20
2023-10-26T02:03:25.753Z,16.70
2023-10-26T02:04:27.705Z,17.95
2023-10-26T02:05:29.685Z,16.35
2023-10-26T02:06:31.784Z,17.65
2023-10-26T02:07:34.556Z,17.77
2023-10-26T02:08:36.701Z,17.33
2023-10-26T02:09:38.823Z,18.13
2023-10-26T02:10:42.432Z,17.52
2023-10-26T02:11:45.177Z,17.23
2023-10-26T02:12:48.582Z,17.20
2023-10-26T02:13:51.238Z,17.83
2023-10-26T02:14:53.391Z,17.30
2023-10-26T02:15:55.321Z,17.92
2023-10-26T02:16:57.170Z,17.88
2023-10-26T02:17:59.153Z,18.02
2023-10-26T02:19:01.283Z,18.52
2023-10-26T02:20:03.531Z,17.63
2023-10-26T02:21:07.050Z,17.15
2023-10-26T02:22:09.081Z,17.42
2023-10-26T02:23:11.364Z,17.30
2023-10-26T02:24:13.332Z,18.85
2023-10-26T02:25:18.056Z,18.40
2023-10-26T02:26:19.937Z,17.60
2023-10-26T02:27:22.088Z,18.55
2023-10-26T02:28:24.554Z,18.02
2023-10-26T02:29:26.738Z,18.23
2023-10-26T02:30:28.676Z,16.95
2023-10-26T02:31:30.604Z,18.08
2023-10-26T02:32:33.272Z,18.02
2023-10-26T02:33:35.292Z,17.67
2023-10-26T02:34:38.379Z,17.10
2023-10-26T02:35:42.929Z,19.10
2023-10-26T02:36:44.985Z,18.85
2023-10-26T02:37:46.917Z,18.08
2023-10-26T02:38:49.147Z,18.05
2023-10-26T02:39:51.151Z,18.48
2023-10-26T02:40:53.085Z,18.88
2023-10-26T02:41:55.020Z,17.73
2023-10-26T02:42:56.894Z,18.90
2023-10-26T02:43:58.796Z,18.63
2023-10-26T02:45:00.741Z,18.63
2023-10-26T02:46:07.403Z,17.88
2023-10-26T02:47:09.278Z,18.55
2023-10-26T02:48:11.260Z,18.30
2023-10-26T02:49:13.214Z,18.77
2023-10-26T02:50:15.125Z,17.90
2023-10-26T02:51:17.057Z,19.67
2023-10-26T02:52:18.937Z,19.02
2023-10-26T02:53:20.816Z,17.50
2023-10-26T02:54:22.895Z,20.08
2023-10-26T02:55:26.156Z,19.30
2023-10-26T02:56:28.004Z,18.17
2023-10-26T02:57:29.940Z,18.55
2023-10-26T02:58:31.920Z,19.30
2023-10-26T02:59:33.890Z,18.38
2023-10-26T03:00:35.784Z,19.63
2023-10-26T03:01:37.721Z,18.73
2023-10-26T03:02:40.492Z,17.80
2023-10-26T03:03:42.536Z,18.23
2023-10-26T03:04:44.793Z,18.50
2023-10-26T03:05:46.956Z,19.42
2023-10-26T03:06:48.812Z,20.00
2023-10-26T03:07:51.856Z,18.85
2023-10-26T03:08:53.907Z,19.45
2023-10-26T03:09:56.046Z,18.90
2023-10-26T03:10:57.942Z,17.90
2023-10-26T03:11:59.833Z,18.60
2023-10-26T03:13:01.778Z,18.65
2023-10-26T03:14:05.396Z,19.02
2023-10-26T03:15:08.956Z,18.98
2023-10-26T03:16:11.423Z,18.92
2023-10-26T03:17:16.389Z,18.63
2023-10-26T03:18:19.787Z,17.02
2023-10-26T03:19:21.797Z,19.23
2023-10-26T03:20:23.834Z,19.67
2023-10-26T03:21:25.850Z,18.55
2023-10-26T03:22:27.762Z,18.15
2023-10-26T03:23:29.709Z,19.30
2023-10-26T03:24:31.745Z,18.75
2023-10-26T03:25:33.724Z,19.83
2023-10-26T03:26:35.591Z,19.30
2023-10-26T03:27:37.499Z,19.02
2023-10-26T03:28:39.376Z,18.80
2023-10-26T03:29:41.301Z,18.67
2023-10-26T03:30:43.217Z,20.92
2023-10-26T03:31:45.244Z,19.33
2023-10-26T03:32:47.315Z,17.20
2023-10-26T03:33:50.184Z,17.65
2023-10-26T03:34:53.457Z,18.48
2023-10-26T03:35:55.423Z,18.27
2023-10-26T03:36:57.359Z,17.73
2023-10-26T03:37:59.281Z,19.60
2023-10-26T03:39:01.231Z,20.88
2023-10-26T03:40:07.925Z,19.27
2023-10-26T03:41:10.357Z,18.50
2023-10-26T03:42:13.189Z,18.90
2023-10-26T03:43:15.175Z,19.27
2023-10-26T03:44:17.609Z,19.52
2023-10-26T03:45:19.851Z,19.00
2023-10-26T03:46:21.877Z,18.48
2023-10-26T03:47:23.760Z,19.98
2023-10-26T03:48:25.732Z,19.98
2023-10-26T03:49:27.743Z,20.38
2023-10-26T03:50:29.676Z,18.77
2023-10-26T03:51:31.656Z,19.00
2023-10-26T03:52:33.549Z,20.20
2023-10-26T03:53:35.688Z,18.73
2023-10-26T03:54:37.700Z,18.40
2023-10-26T03:55:39.537Z,18.35
2023-10-26T03:56:41.476Z,18.67
2023-10-26T03:57:44.716Z,18.58
2023-10-26T03:58:46.645Z,17.30
2023-10-26T03:59:48.567Z,17.77
2023-10-26T04:00:52.469Z,18.08
2023-10-26T04:01:54.376Z,17.73
2023-10-26T04:02:56.398Z,16.58
2023-10-26T04:03:58.290Z,17.10
2023-10-26T04:05:00.526Z,16.70
2023-10-26T04:06:02.452Z,17.45
2023-10-26T04:07:04.521Z,18.08
2023-10-26T04:08:07.671Z,16.63
2023-10-26T04:09:09.666Z,16.98
2023-10-26T04:10:11.625Z,17.73
2023-10-26T04:11:19.728Z,16.38
2023-10-26T04:12:21.676Z,17.27
2023-10-26T04:13:23.633Z,18.30
2023-10-26T04:14:26.509Z,17.20
2023-10-26T04:15:29.131Z,19.42
2023-10-26T04:16:32.392Z,18.75
2023-10-26T04:17:35.200Z,17.83
2023-10-26T04:18:37.215Z,18.60
2023-10-26T04:19:39.530Z,18.13
2023-10-26T04:20:41.443Z,18.58
2023-10-26T04:21:43.548Z,18.90
2023-10-26T04:22:45.453Z,17.30
2023-10-26T04:23:47.323Z,19.33
2023-10-26T04:24:49.209Z,18.33
2023-10-26T04:25:55.136Z,17.77
2023-10-26T04:26:57.342Z,17.85
2023-10-26T04:27:59.220Z,18.20
2023-10-26T04:29:01.158Z,17.75
2023-10-26T04:30:03.280Z,17.95
2023-10-26T04:31:06.030Z,18.15
2023-10-26T04:32:09.464Z,18.40
2023-10-26T04:33:11.511Z,18.65
2023-10-26T04:34:13.424Z,19.17
2023-10-26T04:35:15.500Z,18.73
2023-10-26T04:36:17.582Z,19.33
2023-10-26T04:37:19.531Z,19.20
2023-10-26T04:38:21.469Z,18.75
2023-10-26T04:39:23.521Z,18.08
2023-10-26T04:40:25.438Z,18.60
2023-10-26T04:41:27.328Z,18.02
2023-10-26T04:42:29.279Z,18.85
2023-10-26T04:43:31.251Z,18.08
2023-10-26T04:44:33.563Z,18.90
2023-10-26T04:45:36.533Z,19.23
2023-10-26T04:46:38.385Z,19.13
2023-10-26T04:47:40.379Z,18.10
2023-10-26T04:48:42.373Z,18.83
2023-10-26T04:49:44.373Z,20.42
2023-10-26T04:50:48.033Z,19.80
2023-10-26T04:51:49.980Z,19.60
2023-10-26T04:52:52.669Z,20.23
2023-10-26T04:53:54.828Z,19.52
2023-10-26T04:54:56.715Z,19.60
2023-10-26T04:55:58.610Z,19.05
2023-10-26T04:57:00.484Z,19.15
2023-10-26T04:58:04.334Z,19.20
2023-10-26T04:59:06.274Z,19.02
2023-10-26T05:00:10.550Z,19.23
2023-10-26T05:01:12.601Z,18.67
2023-10-26T05:02:14.605Z,19.25
2023-10-26T05:03:16.532Z,18.38
2023-10-26T05:04:18.486Z,19.00
2023-10-26T05:05:20.753Z,17.98
2023-10-26T05:06:22.827Z,18.63
2023-10-26T05:07:24.842Z,17.17
2023-10-26T05:08:26.742Z,18.17
2023-10-26T05:09:28.687Z,18.58
2023-10-26T05:10:30.612Z,16.55
2023-10-26T05:11:33.777Z,16.90
2023-10-26T05:12:35.667Z,18.40
2023-10-26T05:13:37.610Z,16.63
2023-10-26T05:14:40.257Z,16.60
2023-10-26T05:15:45.224Z,14.98
2023-10-26T05:16:47.139Z,15.80
2023-10-26T05:17:49.199Z,17.33
2023-10-26T05:18:51.263Z,16.80
2023-10-26T05:19:53.197Z,16.27
2023-10-26T05:20:55.175Z,15.73
2023-10-26T05:21:57.067Z,15.75
2023-10-26T05:22:59.040Z,16.35
2023-10-26T05:24:00.909Z,16.40
2023-10-26T05:25:05.913Z,15.98
2023-10-26T05:26:07.891Z,16.23
2023-10-26T05:27:09.770Z,15.40
2023-10-26T05:28:11.712Z,15.95
2023-10-26T05:29:13.625Z,17.00
2023-10-26T05:30:15.576Z,15.30
2023-10-26T05:31:17.567Z,15.30
2023-10-26T05:32:19.542Z,15.85
2023-10-26T05:33:21.689Z,14.98
2023-10-26T05:34:23.909Z,16.45
2023-10-26T05:35:25.811Z,14.35
2023-10-26T05:36:27.749Z,16.15
2023-10-26T05:37:29.704Z,15.05
2023-10-26T05:38:31.652Z,15.65
2023-10-26T05:39:33.841Z,14.40
2023-10-26T05:40:35.926Z,15.00
2023-10-26T05:41:37.768Z,15.73
2023-10-26T05:42:39.645Z,16.30
2023-10-26T05:43:41.827Z,16.35
2023-10-26T05:44:43.884Z,18.17
2023-10-26T05:45:45.897Z,18.60
2023-10-26T05:46:47.806Z,17.00
2023-10-26T05:47:56.560Z,18.70
2023-10-26T05:48:58.588Z,18.17
2023-10-26T05:50:01.245Z,15.38
2023-10-26T05:51:03.743Z,16.58
2023-10-26T05:52:06.257Z,17.00
2023-10-26T05:53:08.873Z,16.65
2023-10-26T05:54:11.446Z,17.65
2023-10-26T05:55:14.397Z,17.70
2023-10-26T05:56:16.396Z,17.75
2023-10-26T05:57:18.248Z,16.95
2023-10-26T05:58:20.170Z,15.90
2023-10-26T05:59:22.926Z,15.90
2023-10-26T06:00:27.052Z,15.75
2023-10-26T06:01:29.042Z,14.70
2023-10-26T06:02:30.986Z,15.82
2023-10-26T06:03:32.892Z,15.95
2023-10-26T06:04:34.942Z,15.32
2023-10-26T06:05:36.776Z,15.98
2023-10-26T06:06:38.775Z,16.50
2023-10-26T06:07:40.730Z,15.90
2023-10-26T06:08:42.657Z,15.90
2023-10-26T06:09:44.610Z,16.58
2023-10-26T06:10:46.457Z,16.05
2023-10-26T06:11:48.395Z,17.30
2023-10-26T06:12:50.256Z,17.25
2023-10-26T06:13:53.104Z,15.50
2023-10-26T06:14:54.995Z,15.85
2023-10-26T06:15:56.972Z,17.20
2023-10-26T06:16:58.857Z,15.05
2023-10-26T06:18:00.766Z,15.43
2023-10-26T06:19:02.698Z,16.55
2023-10-26T06:20:05.421Z,15.43
2023-10-26T06:21:08.411Z,16.00
2023-10-26T06:22:10.654Z,15.27
2023-10-26T06:23:12.569Z,14.43
2023-10-26T06:24:14.600Z,13.80
2023-10-26T06:25:16.621Z,13.85
2023-10-26T06:26:18.464Z,13.88
2023-10-26T06:27:20.849Z,15.10
2023-10-26T06:28:22.839Z,16.38
2023-10-26T06:29:24.751Z,13.98
2023-10-26T06:30:26.718Z,14.35
2023-10-26T06:31:28.661Z,13.45
2023-10-26T06:32:30.600Z,13.32
2023-10-26T06:33:32.495Z,13.80
2023-10-26T06:34:34.490Z,14.35
2023-10-26T06:35:36.298Z,13.88
2023-10-26T06:36:38.312Z,14.60
2023-10-26T06:37:40.232Z,13.82
2023-10-26T06:38:42.429Z,14.38
2023-10-26T06:39:44.274Z,13.45
2023-10-26T06:40:48.184Z,14.40
2023-10-26T06:41:50.238Z,14.35
2023-10-26T06:42:52.582Z,13.77
2023-10-26T06:43:54.503Z,13.90
2023-10-26T06:44:56.534Z,14.30
2023-10-26T06:46:02.748Z,15.38
2023-10-26T06:47:05.098Z,13.80
2023-10-26T06:48:07.096Z,14.95
2023-10-26T06:49:26.704Z,14.52
2023-10-26T06:50:30.894Z,13.50
2023-10-26T06:51:32.782Z,14.65
2023-10-26T06:52:34.639Z,14.43
2023-10-26T06:53:36.643Z,13.93
2023-10-26T06:54:40.586Z,12.32
2023-10-26T06:55:43.936Z,14.25
2023-10-26T06:56:45.841Z,11.27
2023-10-26T06:57:47.764Z,14.30
2023-10-26T06:58:49.786Z,14.13
2023-10-26T06:59:51.750Z,13.93
2023-10-26T07:00:54.179Z,14.10
2023-10-26T07:02:08.538Z,14.00
2023-10-26T07:03:12.865Z,15.00
2023-10-26T07:04:14.891Z,13.35
2023-10-26T07:05:17.712Z,14.32
2023-10-26T07:06:20.185Z,13.65
2023-10-26T07:07:22.916Z,14.73
2023-10-26T07:08:24.947Z,14.60
2023-10-26T07:09:27.103Z,15.25
2023-10-26T07:10:29.355Z,14.90
2023-10-26T07:11:31.305Z,16.15
2023-10-26T07:12:33.207Z,15.65
2023-10-26T07:13:35.824Z,16.08
2023-10-26T07:14:38.066Z,16.80
2023-10-26T07:15:40.271Z,16.58
2023-10-26T07:16:42.270Z,16.42
2023-10-26T07:17:44.720Z,15.45
2023-10-26T07:18:46.730Z,16.77
2023-10-26T07:19:48.868Z,14.98
2023-10-26T07:20:51.925Z,15.48
2023-10-26T07:21:53.827Z,15.98
2023-10-26T07:22:55.658Z,17.92
2023-10-26T07:23:57.528Z,17.75
2023-10-26T07:24:59.424Z,18.17
2023-10-26T07:26:01.981Z,17.10
2023-10-26T07:27:04.414Z,16.48
2023-10-26T07:28:06.418Z,16.40
2023-10-26T07:29:08.315Z,17.02
2023-10-26T07:30:12.772Z,16.98
2023-10-26T07:31:21.176Z,17.98
2023-10-26T07:32:23.476Z,18.02
2023-10-26T07:33:26.095Z,17.10
2023-10-26T07:34:28.082Z,17.63
2023-10-26T07:35:29.999Z,16.70
2023-10-26T07:36:32.109Z,17.80
2023-10-26T07:37:34.117Z,16.88
2023-10-26T07:38:37.616Z,16.40
2023-10-26T07:39:44.415Z,18.17
2023-10-26T07:40:54.106Z,16.95
2023-10-26T07:42:06.715Z,16.83
2023-10-26T07:43:10.202Z,17.13
2023-10-26T07:44:12.108Z,18.80
2023-10-26T07:45:14.126Z,17.88
2023-10-26T07:46:16.062Z,18.88
2023-10-26T07:47:17.969Z,18.75
2023-10-26T07:48:20.007Z,16.30
2023-10-26T07:49:21.946Z,16.80
2023-10-26T07:50:23.946Z,16.88
2023-10-26T07:51:25.898Z,16.70
2023-10-26T07:52:27.871Z,16.08
2023-10-26T07:53:30.021Z,16.45
2023-10-26T07:54:32.007Z,15.70
2023-10-26T07:55:34.686Z,16.35
2023-10-26T07:56:39.505Z,15.63
2023-10-26T07:57:44.256Z,16.58
2023-10-26T07:58:46.197Z,16.20
2023-10-26T07:59:48.318Z,17.38
2023-10-26T08:00:50.276Z,16.63
2023-10-26T08:01:52.322Z,16.80
2023-10-26T08:02:54.411Z,18.08
2023-10-26T08:03:56.331Z,18.25
2023-10-26T08:04:58.267Z,17.67
2023-10-26T08:06:03.900Z,16.95
2023-10-26T08:07:05.796Z,16.83
2023-10-26T08:08:07.774Z,17.30
2023-10-26T08:09:09.755Z,16.88
2023-10-26T08:10:11.866Z,17.92
2023-10-26T08:11:15.634Z,17.48
2023-10-26T08:12:17.789Z,20.15
2023-10-26T08:13:19.905Z,16.58
2023-10-26T08:14:31.468Z,17.80
2023-10-26T08:16:09.640Z,18.08
2023-10-26T08:17:06.247Z,18.20
2023-10-26T08:18:08.438Z,17.52
2023-10-26T08:19:10.655Z,18.48
2023-10-26T08:20:13.318Z,18.77
2023-10-26T08:21:15.294Z,19.35
2023-10-26T08:22:17.182Z,19.60
2023-10-26T08:23:20.738Z,18.00
2023-10-26T08:24:22.701Z,19.40
2023-10-26T08:25:25.964Z,19.05
2023-10-26T08:26:28.370Z,18.98
2023-10-26T08:27:32.438Z,19.00
2023-10-26T08:28:38.465Z,19.10
2023-10-26T08:29:40.707Z,18.08
2023-10-26T08:30:43.666Z,17.63
2023-10-26T08:31:45.678Z,20.05
2023-10-26T08:32:50.579Z,19.13
2023-10-26T08:33:52.653Z,19.73
2023-10-26T08:34:54.560Z,16.80
2023-10-26T08:35:56.633Z,20.60
2023-10-26T08:37:13.193Z,19.65
2023-10-26T08:38:16.395Z,18.55
2023-10-26T08:39:19.038Z,19.35
2023-10-26T08:40:21.664Z,18.70
2023-10-26T08:41:23.801Z,18.17
2023-10-26T08:42:26.094Z,17.17
2023-10-26T08:43:30.620Z,18.35
2023-10-26T08:44:33.584Z,17.65
2023-10-26T08:45:37.865Z,17.55
2023-10-26T08:46:40.719Z,18.38
2023-10-26T08:47:44.906Z,17.13
2023-10-26T08:48:51.439Z,18.85
2023-10-26T08:50:12.284Z,18.40
2023-10-26T08:51:17.864Z,17.33
2023-10-26T08:52:19.894Z,17.13
2023-10-26T08:53:21.941Z,18.55
2023-10-26T08:54:24.344Z,17.85
2023-10-26T08:55:27.018Z,18.88
2023-10-26T08:56:29.430Z,22.25
2023-10-26T08:57:31.326Z,22.10
2023-10-26T08:58:33.592Z,23.17
2023-10-26T08:59:37.099Z,20.52
2023-10-26T09:00:41.764Z,17.63
2023-10-26T09:01:49.987Z,19.30
2023-10-26T09:02:52.584Z,19.30
2023-10-26T09:03:54.882Z,17.85
2023-10-26T09:05:05.640Z,18.20
2023-10-26T09:06:07.771Z,17.00
2023-10-26T09:07:09.969Z,16.35
2023-10-26T09:08:21.667Z,16.40
2023-10-26T09:09:24.056Z,16.60
2023-10-26T09:10:33.519Z,16.38
2023-10-26T09:11:35.476Z,16.00
2023-10-26T09:12:38.363Z,14.60
2023-10-26T09:13:40.253Z,14.85
2023-10-26T09:14:59.383Z,14.35
2023-10-26T09:16:01.644Z,15.13
2023-10-26T09:17:04.986Z,15.75
2023-10-26T09:18:10.732Z,15.18
2023-10-26T09:19:17.992Z,16.55
2023-10-26T09:20:22.468Z,16.20
2023-10-26T09:21:24.350Z,15.70
2023-10-26T09:22:40.225Z,15.15
2023-10-26T09:23:43.112Z,15.70
2023-10-26T09:24:45.479Z,13.82
2023-10-26T09:26:04.377Z,15.38
2023-10-26T09:27:06.472Z,15.85
2023-10-26T09:28:10.679Z,15.30
2023-10-26T09:29:12.569Z,15.27
2023-10-26T09:30:29.794Z,15.10
2023-10-26T09:31:32.049Z,14.00
2023-10-26T09:32:37.726Z,15.10
2023-10-26T09:33:40.741Z,15.65
2023-10-26T09:34:46.607Z,15.68
2023-10-26T09:35:48.890Z,15.52
2023-10-26T09:37:06.414Z,15.30
2023-10-26T09:38:08.773Z,15.85
2023-10-26T09:39:10.983Z,15.98
2023-10-26T09:40:16.941Z,15.73
2023-10-26T09:41:21.152Z,16.10
2023-10-26T09:42:25.076Z,15.35
2023-10-26T09:43:27.011Z,14.80
2023-10-26T09:44:33.061Z,16.25
2023-10-26T09:45:36.448Z,14.40
2023-10-26T09:46:39.131Z,14.65
2023-10-26T09:47:41.592Z,15.30
2023-10-26T09:48:44.059Z,14.65
2023-10-26T09:49:46.717Z,13.98
2023-10-26T09:50:50.152Z,14.82
2023-10-26T09:51:53.651Z,15.50
2023-10-26T09:52:58.643Z,15.05
2023-10-26T09:54:05.739Z,15.48
2023-10-26T09:55:11.518Z,14.25
2023-10-26T09:56:24.816Z,15.27
2023-10-26T09:57:39.936Z,13.45
2023-10-26T09:58:43.524Z,14.52
2023-10-26T09:59:54.514Z,15.00
2023-10-26T10:00:56.484Z,15.75
2023-10-26T10:01:58.559Z,16.77
2023-10-26T10:03:18.157Z,15.38
2023-10-26T10:04:38.843Z,14.27
2023-10-26T10:05:48.052Z,14.82
2023-10-26T10:06:59.864Z,13.80
2023-10-26T10:08:02.051Z,13.85
2023-10-26T10:09:04.271Z,14.98
2023-10-26T10:10:09.315Z,14.13
2023-10-26T10:11:18.741Z,13.40
2023-10-26T10:12:26.955Z,12.82
2023-10-26T10:13:38.939Z,13.45
2023-10-26T10:14:49.891Z,19.25
2023-10-26T10:15:51.886Z,14.32
2023-10-26T10:16:54.778Z,14.45
2023-10-26T10:17:59.469Z,15.45
2023-10-26T10:19:21.841Z,15.18
2023-10-26T10:20:23.609Z,14.55
2023-10-26T10:21:37.737Z,13.43
2023-10-26T10:22:51.318Z,13.05
2023-10-26T10:23:53.244Z,13.57
2023-10-26T10:24:55.272Z,13.50
2023-10-26T10:26:05.765Z,14.38
2023-10-26T10:27:19.295Z,13.88
2023-10-26T10:28:21.737Z,13.70
2023-10-26T10:29:24.099Z,14.43
2023-10-26T10:30:47.138Z,13.77
2023-10-26T10:31:49.143Z,14.55
2023-10-26T10:32:53.145Z,13.88
2023-10-26T10:34:06.780Z,14.50
2023-10-26T10:35:28.252Z,16.08
2023-10-26T10:36:30.354Z,15.05
2023-10-26T10:37:32.248Z,14.45
2023-10-26T10:38:34.213Z,14.70
2023-10-26T10:39:36.297Z,15.13
2023-10-26T10:40:39.753Z,15.93
2023-10-26T10:41:42.407Z,14.25
2023-10-26T10:42:51.001Z,14.85
2023-10-26T10:43:59.275Z,15.73
2023-10-26T10:45:03.743Z,14.38
2023-10-26T10:46:21.437Z,15.85
2023-10-26T10:47:29.941Z,14.93
2023-10-26T10:48:32.005Z,17.30
2023-10-26T10:49:34.323Z,16.25
2023-10-26T10:50:36.573Z,15.85
2023-10-26T10:51:42.413Z,15.77
2023-10-26T10:52:44.802Z,15.38
2023-10-26T10:53:51.932Z,15.70
2023-10-26T10:55:04.677Z,15.93
2023-10-26T10:56:07.498Z,16.15
2023-10-26T10:57:09.460Z,14.27
2023-10-26T10:58:11.544Z,16.30
2023-10-26T10:59:24.701Z,16.50
2023-10-26T11:00:52.152Z,15.60
2023-10-26T11:02:14.560Z,15.80
2023-10-26T11:03:21.574Z,17.88
2023-10-26T11:04:23.981Z,16.65
2023-10-26T11:05:41.219Z,16.08
2023-10-26T11:06:50.865Z,15.35
2023-10-26T11:07:53.989Z,16.73
2023-10-26T11:08:55.892Z,17.80
2023-10-26T11:10:04.129Z,16.77
2023-10-26T11:11:06.232Z,16.00
2023-10-26T11:12:13.002Z,16.08
2023-10-26T11:13:21.513Z,16.17
2023-10-26T11:14:23.903Z,16.00
2023-10-26T11:15:39.025Z,17.80
2023-10-26T11:16:45.207Z,15.75
2023-10-26T11:17:48.967Z,17.00
2023-10-26T11:18:51.160Z,15.57
2023-10-26T11:19:54.776Z,16.63
2023-10-26T11:20:56.710Z,16.60
2023-10-26T11:22:05.276Z,16.45
2023-10-26T11:23:10.540Z,16.15
2023-10-26T11:24:19.150Z,16.30
2023-10-26T11:25:28.411Z,15.30
2023-10-26T11:26:30.324Z,15.25
2023-10-26T11:27:38.703Z,15.20
2023-10-26T11:28:41.934Z,15.43
2023-10-26T11:30:01.036Z,15.63
2023-10-26T11:31:03.163Z,16.17
2023-10-26T11:32:22.234Z,18.63
2023-10-26T11:33:40.534Z,16.40
2023-10-26T11:35:10.728Z,15.57
2023-10-26T11:36:14.445Z,16.00
2023-10-26T11:37:16.560Z,15.30
2023-10-26T11:38:18.531Z,16.08
2023-10-26T11:39:20.909Z,16.25
2023-10-26T11:40:33.132Z,15.70
2023-10-26T11:41:35.217Z,15.45
2023-10-26T11:42:53.174Z,15.60
2023-10-26T11:43:57.306Z,15.30
2023-10-26T11:44:59.141Z,17.42
2023-10-26T11:46:04.214Z,19.10
2023-10-26T11:47:06.439Z,26.63
2023-10-26T11:48:08.336Z,15.48
2023-10-26T11:49:10.225Z,15.23
2023-10-26T11:50:27.240Z,25.08
2023-10-26T11:51:30.382Z,19.65
2023-10-26T11:52:32.387Z,16.70
2023-10-26T11:53:35.748Z,17.48
2023-10-26T11:54:37.963Z,15.60
2023-10-26T11:55:39.938Z,16.33
2023-10-26T11:56:41.895Z,15.18
2023-10-26T11:57:43.908Z,15.13
2023-10-26T11:58:45.866Z,14.77
2023-10-26T11:59:47.785Z,16.15
2023-10-26T12:00:49.708Z,15.10
2023-10-26T12:01:51.736Z,15.07
2023-10-26T12:02:58.777Z,15.80
2023-10-26T12:04:00.879Z,15.50
2023-10-26T12:05:04.234Z,15.35
2023-10-26T12:06:06.690Z,16.58
2023-10-26T12:07:08.802Z,14.18
2023-10-26T12:08:10.701Z,15.50
2023-10-26T12:09:14.632Z,17.50
2023-10-26T12:10:20.111Z,18.40
2023-10-26T12:11:22.030Z,16.10
2023-10-26T12:12:24.089Z,14.60
2023-10-26T12:13:25.974Z,16.00
2023-10-26T12:14:27.851Z,15.32
2023-10-26T12:15:31.283Z,15.98
2023-10-26T12:16:33.712Z,15.10
2023-10-26T12:17:36.966Z,14.55
2023-10-26T12:18:39.319Z,15.57
2023-10-26T12:19:41.262Z,14.07
2023-10-26T12:20:43.229Z,15.05
2023-10-26T12:21:45.223Z,13.88
2023-10-26T12:22:53.223Z,14.88
2023-10-26T12:23:55.873Z,15.32
2023-10-26T12:24:57.841Z,15.68
2023-10-26T12:26:00.081Z,15.05
2023-10-26T12:27:02.064Z,14.20
2023-10-26T12:28:20.270Z,12.82
2023-10-26T12:29:24.893Z,13.63
2023-10-26T12:30:26.897Z,13.32
2023-10-26T12:31:28.932Z,14.38
2023-10-26T12:32:33.996Z,13.02
2023-10-26T12:33:39.677Z,15.25
2023-10-26T12:34:43.465Z,14.00
2023-10-26T12:35:47.477Z,13.20
2023-10-26T12:36:49.486Z,14.20
2023-10-26T12:37:52.465Z,13.15
2023-10-26T12:38:54.793Z,14.48
2023-10-26T12:39:57.131Z,14.48
2023-10-26T12:41:00.339Z,14.35
2023-10-26T12:42:03.187Z,13.07
2023-10-26T12:43:05.975Z,12.80
2023-10-26T12:44:08.868Z,19.15
2023-10-26T12:45:11.058Z,14.82
2023-10-26T12:46:14.110Z,14.02
2023-10-26T12:47:16.200Z,15.30
2023-10-26T12:48:18.128Z,12.07
2023-10-26T12:49:22.421Z,13.35
2023-10-26T12:50:24.613Z,12.43
2023-10-26T12:51:26.651Z,12.10
2023-10-26T12:52:28.814Z,12.50
2023-10-26T12:53:33.113Z,11.80
2023-10-26T12:54:35.634Z,11.73
2023-10-26T12:55:37.722Z,13.05
2023-10-26T12:56:39.717Z,12.68
2023-10-26T12:57:41.810Z,14.90
2023-10-26T12:58:43.817Z,15.23
2023-10-26T12:59:46.133Z,14.95
2023-10-26T13:00:49.584Z,17.55
2023-10-26T13:01:51.525Z,16.60
2023-10-26T13:02:53.462Z,15.63
2023-10-26T13:03:57.948Z,14.50
2023-10-26T13:05:01.231Z,13.27
2023-10-26T13:06:03.283Z,12.82
2023-10-26T13:07:05.275Z,12.43
2023-10-26T13:08:07.534Z,12.68
2023-10-26T13:09:09.521Z,12.73
2023-10-26T13:10:11.524Z,12.73
2023-10-26T13:11:13.947Z,13.52
2023-10-26T13:12:15.986Z,13.10
2023-10-26T13:13:17.905Z,14.27
2023-10-26T13:14:19.916Z,12.90
2023-10-26T13:15:21.812Z,13.40
2023-10-26T13:16:24.734Z,10.77
2023-10-26T13:17:26.764Z,12.15
2023-10-26T13:18:32.843Z,12.15
2023-10-26T13:19:34.882Z,11.00
2023-10-26T13:20:40.251Z,10.77
2023-10-26T13:21:42.405Z,10.80
2023-10-26T13:22:44.506Z,11.75
2023-10-26T13:23:46.458Z,11.30
2023-10-26T13:24:48.424Z,10.80
2023-10-26T13:25:51.573Z,11.45
2023-10-26T13:26:54.600Z,10.70
2023-10-26T13:27:58.727Z,9.75
2023-10-26T13:29:01.208Z,10.80
2023-10-26T13:30:03.488Z,10.05
2023-10-26T13:31:07.150Z,10.55
2023-10-26T13:32:09.302Z,11.55
2023-10-26T13:33:11.621Z,9.65
2023-10-26T13:34:13.830Z,10.57
2023-10-26T13:35:15.716Z,11.15
2023-10-26T13:36:17.635Z,10.90
2023-10-26T13:37:20.631Z,10.75
2023-10-26T13:38:22.608Z,11.10
2023-10-26T13:39:24.459Z,11.00